NCAR-RAP Real-Time Weather Data

Output produced by METARs form (14 October 2019  22:57 UTC)
found at http://weather.rap.ucar.edu/surface/
 
KLEX 142154Z 25006KT 10SM CLR 21/01 A3008 RMK AO2 SLP183 T02110011
KLEX 142054Z VRB04G15KT 10SM CLR 22/01 A3008 RMK AO2 SLP181 T02220011 55011
KLEX 141954Z 21005KT 10SM CLR 22/02 A3008 RMK AO2 SLP181 T02220022
KLEX 141854Z 22008KT 10SM CLR 22/01 A3009 RMK AO2 SLP186 T02170011
KLEX 141754Z 25009G17KT 10SM CLR 21/01 A3011 RMK AO2 SLP193 T02060011 10211 20078 58007
KLEX 141654Z 26010G14KT 10SM CLR 20/03 A3013 RMK AO2 SLP199 T02000028
KLEX 141554Z VRB03KT 10SM CLR 18/04 A3013 RMK AO2 SLP201 T01780039
KLEX 141454Z 24004KT 10SM CLR 16/05 A3013 RMK AO2 SLP202 T01560050 50014
KLEX 141354Z 23006KT 10SM CLR 13/04 A3014 RMK AO2 SLP203 T01330044
KLEX 141254Z 22005KT 10SM CLR 10/03 A3011 RMK AO2 SLP195 T01000033
KLEX 141154Z 21007KT 10SM CLR 08/02 A3009 RMK AO2 SLP189 T00780017 10100 20072 53016
KLEX 141054Z 22006KT 10SM CLR 09/02 A3007 RMK AO2 SLP182 T00890017
KLEX 140954Z 20008KT 10SM CLR 09/02 A3006 RMK AO2 SLP173 T00940022
KLEX 140854Z 21007KT 10SM CLR 09/02 A3004 RMK AO2 SLP170 T00890022 53008
KLEX 140754Z 22006KT 10SM CLR 09/02 A3003 RMK AO2 SLP167 T00890022
KLEX 140654Z 21007KT 10SM CLR 10/02 A3003 RMK AO2 SLP164 T01000022
KLEX 140554Z 21007KT 10SM CLR 10/03 A3002 RMK AO2 SLP162 T01000028 10161 20100 51001
KLEX 140454Z 21008KT 10SM CLR 11/03 A3002 RMK AO2 SLP162 T01060028 402170022
KLEX 140354Z 21007KT 10SM CLR 11/02 A3002 RMK AO2 SLP165 T01060022
KLEX 140254Z 21006KT 10SM CLR 12/02 A3002 RMK AO2 SLP163 T01170022 51012
KLEX 140154Z 21006KT 10SM CLR 13/03 A3001 RMK AO2 SLP160 T01280028
KLEX 140054Z 21005KT 10SM CLR 14/02 A2999 RMK AO2 SLP157 T01440022
KLEX 132354Z 22006KT 10SM CLR 16/02 A2998 RMK AO2 SLP152 T01610022 10217 20161 53006
KLEX 132254Z 25005KT 10SM CLR 18/02 A2996 RMK AO2 SLP146 T01780022
KLEX 132154Z 23008KT 10SM CLR 21/01 A2996 RMK AO2 SLP143 T02110006
KLEX 132054Z 22011KT 10SM CLR 22/M01 A2996 RMK AO2 SLP144 T02171006 56016
KLEX 131954Z 18009KT 10SM CLR 21/01 A2997 RMK AO2 SLP146 T02110011
KLEX 131854Z 21009G16KT 10SM CLR 21/01 A2998 RMK AO2 SLP150 T02060006
KLEX 131754Z VRB05KT 10SM CLR 19/01 A3001 RMK AO2 SLP160 T01940011 10194 20028 58022
KLEX 131654Z VRB05KT 10SM CLR 17/02 A3004 RMK AO2 SLP172 T01720022
KLEX 131554Z 21008KT 10SM CLR 15/03 A3006 RMK AO2 SLP181 T01500028
KLEX 131454Z 22007KT 10SM CLR 13/04 A3007 RMK AO2 SLP185 T01280039 50003
KLEX 131354Z 16005KT 10SM CLR 09/04 A3008 RMK AO2 SLP187 T00940039
KLEX 131254Z 15006KT 10SM CLR 06/02 A3008 RMK AO2 SLP187 T00560017
KLEX 131154Z 15003KT 10SM CLR 03/M01 A3006 RMK AO2 SLP183 T00281006 10067 20022 53004
KLEX 131054Z 13004KT 10SM CLR 04/00 A3006 RMK AO2 SLP180 T00390000
KLEX 130954Z 15003KT 10SM CLR 03/M01 A3005 RMK AO2 SLP178 T00331006
KLEX 130854Z 00000KT 10SM CLR 03/M01 A3005 RMK AO2 SLP177 T00281006 56004
KLEX 130754Z 00000KT 10SM CLR 03/M01 A3005 RMK AO2 SLP177 T00331011
KLEX 130654Z 00000KT 10SM CLR 05/M01 A3006 RMK AO2 SLP180 T00501006
KLEX 130554Z 15005KT 10SM CLR 05/00 A3006 RMK AO2 SLP181 T00500000 10106 20044 58012
KLEX 130454Z 15005KT 10SM CLR 06/01 A3007 RMK AO2 SLP186 T00560006 401560044
KLEX 130354Z 17004KT 10SM CLR 05/01 A3009 RMK AO2 SLP190 T00500006
KLEX 130254Z 00000KT 10SM CLR 07/01 A3010 RMK AO2 SLP194 T00670011 58001
KLEX 130154Z 00000KT 10SM CLR 08/01 A3011 RMK AO2 SLP196 T00830011
KLEX 130054Z 00000KT 10SM CLR 09/01 A3011 RMK AO2 SLP197 T00940006
KLEX 122354Z 16006KT 10SM CLR 11/00 A3010 RMK AO2 SLP194 T01060000 10156 20106 58009